sensor_id;sensor_type;location;lat;lon;timestamp;temperature;humidity
827;DHT22;395;48.132;11.608;2023-02-22T00:01:32;10.20;1.00
827;DHT22;395;48.132;11.608;2023-02-22T00:04:07;10.20;1.00
827;DHT22;395;48.132;11.608;2023-02-22T00:06:34;10.20;1.00
827;DHT22;395;48.132;11.608;2023-02-22T00:09:00;10.20;1.00
827;DHT22;395;48.132;11.608;2023-02-22T00:11:26;10.10;1.00
827;DHT22;395;48.132;11.608;2023-02-22T00:13:52;10.20;1.00
827;DHT22;395;48.132;11.608;2023-02-22T00:16:22;10.10;1.00
827;DHT22;395;48.132;11.608;2023-02-22T00:18:48;10.10;1.00
827;DHT22;395;48.132;11.608;2023-02-22T00:21:15;10.10;1.00
827;DHT22;395;48.132;11.608;2023-02-22T00:23:43;10.10;1.00
827;DHT22;395;48.132;11.608;2023-02-22T00:26:17;10.10;1.00
827;DHT22;395;48.132;11.608;2023-02-22T00:28:51;10.00;1.00
827;DHT22;395;48.132;11.608;2023-02-22T00:31:17;10.00;1.00
827;DHT22;395;48.132;11.608;2023-02-22T00:33:43;10.10;1.00
827;DHT22;395;48.132;11.608;2023-02-22T00:36:11;10.00;1.00
827;DHT22;395;48.132;11.608;2023-02-22T00:38:37;10.00;1.00
827;DHT22;395;48.132;11.608;2023-02-22T00:41:03;10.00;1.00
827;DHT22;395;48.132;11.608;2023-02-22T00:43:28;10.00;1.00
827;DHT22;395;48.132;11.608;2023-02-22T00:45:54;10.00;1.00
827;DHT22;395;48.132;11.608;2023-02-22T00:48:21;10.00;1.00
827;DHT22;395;48.132;11.608;2023-02-22T00:50:47;10.00;1.00
827;DHT22;395;48.132;11.608;2023-02-22T00:53:14;10.00;1.00
827;DHT22;395;48.132;11.608;2023-02-22T00:55:39;10.00;1.00
827;DHT22;395;48.132;11.608;2023-02-22T00:58:06;10.00;1.00
827;DHT22;395;48.132;11.608;2023-02-22T01:00:39;10.00;1.00
827;DHT22;395;48.132;11.608;2023-02-22T01:03:09;10.00;1.00
827;DHT22;395;48.132;11.608;2023-02-22T01:05:36;9.90;1.00
827;DHT22;395;48.132;11.608;2023-02-22T01:08:03;9.90;1.00
827;DHT22;395;48.132;11.608;2023-02-22T01:10:31;9.90;1.00
827;DHT22;395;48.132;11.608;2023-02-22T01:12:58;9.90;1.00
827;DHT22;395;48.132;11.608;2023-02-22T01:15:26;9.80;1.00
827;DHT22;395;48.132;11.608;2023-02-22T01:17:53;9.80;1.00
827;DHT22;395;48.132;11.608;2023-02-22T01:20:21;9.80;1.00
827;DHT22;395;48.132;11.608;2023-02-22T01:22:48;9.80;1.00
827;DHT22;395;48.132;11.608;2023-02-22T01:25:20;9.80;1.00
827;DHT22;395;48.132;11.608;2023-02-22T01:27:47;9.70;1.00
827;DHT22;395;48.132;11.608;2023-02-22T01:30:15;9.70;1.00
827;DHT22;395;48.132;11.608;2023-02-22T01:32:42;9.70;1.00
827;DHT22;395;48.132;11.608;2023-02-22T01:35:11;9.60;1.00
827;DHT22;395;48.132;11.608;2023-02-22T01:37:38;9.60;1.00
827;DHT22;395;48.132;11.608;2023-02-22T01:40:06;9.60;1.00
827;DHT22;395;48.132;11.608;2023-02-22T01:42:33;9.50;1.00
827;DHT22;395;48.132;11.608;2023-02-22T01:48:14;9.50;1.00
827;DHT22;395;48.132;11.608;2023-02-22T01:50:49;9.40;1.00
827;DHT22;395;48.132;11.608;2023-02-22T01:53:21;9.40;1.00
827;DHT22;395;48.132;11.608;2023-02-22T01:55:48;9.30;1.00
827;DHT22;395;48.132;11.608;2023-02-22T01:58:15;9.40;1.00
827;DHT22;395;48.132;11.608;2023-02-22T02:00:43;9.30;1.00
827;DHT22;395;48.132;11.608;2023-02-22T02:03:19;9.20;1.00
827;DHT22;395;48.132;11.608;2023-02-22T02:05:46;9.20;1.00
827;DHT22;395;48.132;11.608;2023-02-22T02:08:40;9.20;1.00
827;DHT22;395;48.132;11.608;2023-02-22T02:11:08;9.20;1.00
827;DHT22;395;48.132;11.608;2023-02-22T02:13:34;9.10;1.00
827;DHT22;395;48.132;11.608;2023-02-22T02:16:00;9.10;1.00
827;DHT22;395;48.132;11.608;2023-02-22T02:18:26;9.00;1.00
827;DHT22;395;48.132;11.608;2023-02-22T02:24:07;9.00;1.00
827;DHT22;395;48.132;11.608;2023-02-22T02:27:21;9.00;1.00
827;DHT22;395;48.132;11.608;2023-02-22T02:29:56;9.00;1.00
827;DHT22;395;48.132;11.608;2023-02-22T02:35:37;9.00;1.00
827;DHT22;395;48.132;11.608;2023-02-22T02:40:47;9.00;1.00
827;DHT22;395;48.132;11.608;2023-02-22T02:45:55;9.00;1.00
827;DHT22;395;48.132;11.608;2023-02-22T02:48:26;9.00;1.00
827;DHT22;395;48.132;11.608;2023-02-22T02:50:54;9.00;1.00
827;DHT22;395;48.132;11.608;2023-02-22T02:53:26;9.00;1.00
827;DHT22;395;48.132;11.608;2023-02-22T02:55:52;9.00;1.00
827;DHT22;395;48.132;11.608;2023-02-22T02:58:21;9.00;1.00
827;DHT22;395;48.132;11.608;2023-02-22T03:00:51;9.00;1.00
827;DHT22;395;48.132;11.608;2023-02-22T03:08:40;9.00;1.00
827;DHT22;395;48.132;11.608;2023-02-22T03:11:17;9.00;1.00
827;DHT22;395;48.132;11.608;2023-02-22T03:19:08;9.00;1.00
827;DHT22;395;48.132;11.608;2023-02-22T03:24:21;9.00;1.00
827;DHT22;395;48.132;11.608;2023-02-22T03:27:31;8.90;1.00
827;DHT22;395;48.132;11.608;2023-02-22T03:29:51;8.90;1.00
827;DHT22;395;48.132;11.608;2023-02-22T03:32:22;8.90;1.00
827;DHT22;395;48.132;11.608;2023-02-22T03:34:56;8.90;1.00
827;DHT22;395;48.132;11.608;2023-02-22T03:37:27;8.90;1.00
827;DHT22;395;48.132;11.608;2023-02-22T03:39:54;8.90;1.00
827;DHT22;395;48.132;11.608;2023-02-22T03:42:24;8.90;1.00
827;DHT22;395;48.132;11.608;2023-02-22T03:44:52;8.90;1.00
827;DHT22;395;48.132;11.608;2023-02-22T03:47:35;8.90;1.00
827;DHT22;395;48.132;11.608;2023-02-22T03:50:10;8.90;1.00
827;DHT22;395;48.132;11.608;2023-02-22T03:52:37;8.90;1.00
827;DHT22;395;48.132;11.608;2023-02-22T03:55:03;8.90;1.00
827;DHT22;395;48.132;11.608;2023-02-22T03:57:37;8.90;1.00
827;DHT22;395;48.132;11.608;2023-02-22T04:00:06;8.90;1.00
827;DHT22;395;48.132;11.608;2023-02-22T04:02:33;8.90;1.00
827;DHT22;395;48.132;11.608;2023-02-22T04:04:59;8.90;1.00
827;DHT22;395;48.132;11.608;2023-02-22T04:07:25;8.90;1.00
827;DHT22;395;48.132;11.608;2023-02-22T04:09:50;8.90;1.00
827;DHT22;395;48.132;11.608;2023-02-22T04:12:16;8.90;1.00
827;DHT22;395;48.132;11.608;2023-02-22T04:14:42;8.90;1.00
827;DHT22;395;48.132;11.608;2023-02-22T04:17:08;8.90;1.00
827;DHT22;395;48.132;11.608;2023-02-22T04:19:34;8.90;1.00
827;DHT22;395;48.132;11.608;2023-02-22T04:21:59;8.90;1.00
827;DHT22;395;48.132;11.608;2023-02-22T04:24:25;8.90;1.00
827;DHT22;395;48.132;11.608;2023-02-22T04:26:50;8.90;1.00
827;DHT22;395;48.132;11.608;2023-02-22T04:29:16;8.90;1.00
827;DHT22;395;48.132;11.608;2023-02-22T04:31:42;8.90;1.00
827;DHT22;395;48.132;11.608;2023-02-22T04:34:07;8.90;1.00
827;DHT22;395;48.132;11.608;2023-02-22T04:36:33;8.90;1.00
827;DHT22;395;48.132;11.608;2023-02-22T04:38:59;8.90;1.00
827;DHT22;395;48.132;11.608;2023-02-22T04:41:25;8.90;1.00
827;DHT22;395;48.132;11.608;2023-02-22T04:43:51;8.90;1.00
827;DHT22;395;48.132;11.608;2023-02-22T04:46:16;8.90;1.00
827;DHT22;395;48.132;11.608;2023-02-22T04:48:42;8.90;1.00
827;DHT22;395;48.132;11.608;2023-02-22T04:51:08;8.90;1.00
827;DHT22;395;48.132;11.608;2023-02-22T04:53:34;8.90;1.00
827;DHT22;395;48.132;11.608;2023-02-22T04:56:00;8.90;1.00
827;DHT22;395;48.132;11.608;2023-02-22T04:58:26;8.90;1.00
827;DHT22;395;48.132;11.608;2023-02-22T05:00:52;8.90;1.00
827;DHT22;395;48.132;11.608;2023-02-22T05:03:17;9.00;1.00
827;DHT22;395;48.132;11.608;2023-02-22T05:05:43;8.90;1.00
827;DHT22;395;48.132;11.608;2023-02-22T05:08:08;8.90;1.00
827;DHT22;395;48.132;11.608;2023-02-22T05:10:34;8.90;1.00
827;DHT22;395;48.132;11.608;2023-02-22T05:13:00;8.90;1.00
827;DHT22;395;48.132;11.608;2023-02-22T05:15:25;8.90;1.00
827;DHT22;395;48.132;11.608;2023-02-22T05:17:52;8.90;1.00
827;DHT22;395;48.132;11.608;2023-02-22T05:20:29;8.90;1.00
827;DHT22;395;48.132;11.608;2023-02-22T05:22:57;8.90;1.00
827;DHT22;395;48.132;11.608;2023-02-22T05:25:23;8.90;1.00
827;DHT22;395;48.132;11.608;2023-02-22T05:27:55;8.90;1.00
827;DHT22;395;48.132;11.608;2023-02-22T05:30:26;8.90;1.00
827;DHT22;395;48.132;11.608;2023-02-22T05:32:52;8.90;1.00
827;DHT22;395;48.132;11.608;2023-02-22T05:35:19;8.80;1.00
827;DHT22;395;48.132;11.608;2023-02-22T05:37:45;8.80;1.00
827;DHT22;395;48.132;11.608;2023-02-22T05:40:12;8.80;1.00
827;DHT22;395;48.132;11.608;2023-02-22T05:42:39;8.80;1.00
827;DHT22;395;48.132;11.608;2023-02-22T05:45:06;8.80;1.00
827;DHT22;395;48.132;11.608;2023-02-22T05:47:31;8.70;1.00
827;DHT22;395;48.132;11.608;2023-02-22T05:49:57;8.70;1.00
827;DHT22;395;48.132;11.608;2023-02-22T05:52:23;8.70;1.00
827;DHT22;395;48.132;11.608;2023-02-22T05:54:49;8.70;1.00
827;DHT22;395;48.132;11.608;2023-02-22T05:57:15;8.70;1.00
827;DHT22;395;48.132;11.608;2023-02-22T05:59:41;8.70;1.00
827;DHT22;395;48.132;11.608;2023-02-22T06:02:07;8.60;1.00
827;DHT22;395;48.132;11.608;2023-02-22T06:04:33;8.60;1.00
827;DHT22;395;48.132;11.608;2023-02-22T06:06:59;8.60;1.00
827;DHT22;395;48.132;11.608;2023-02-22T06:09:24;8.60;1.00
827;DHT22;395;48.132;11.608;2023-02-22T06:11:51;8.60;1.00
827;DHT22;395;48.132;11.608;2023-02-22T06:14:17;8.60;1.00
827;DHT22;395;48.132;11.608;2023-02-22T06:16:42;8.50;1.00
827;DHT22;395;48.132;11.608;2023-02-22T06:19:08;8.50;1.00
827;DHT22;395;48.132;11.608;2023-02-22T06:21:34;8.50;1.00
827;DHT22;395;48.132;11.608;2023-02-22T06:24:01;8.50;1.00
827;DHT22;395;48.132;11.608;2023-02-22T06:26:28;8.50;1.00
827;DHT22;395;48.132;11.608;2023-02-22T06:28:54;8.50;1.00
827;DHT22;395;48.132;11.608;2023-02-22T06:31:20;8.50;1.00
827;DHT22;395;48.132;11.608;2023-02-22T06:33:45;8.50;1.00
827;DHT22;395;48.132;11.608;2023-02-22T06:36:11;8.50;1.00
827;DHT22;395;48.132;11.608;2023-02-22T06:38:37;8.50;1.00
827;DHT22;395;48.132;11.608;2023-02-22T06:41:03;8.50;1.00
827;DHT22;395;48.132;11.608;2023-02-22T06:43:28;8.50;1.00
827;DHT22;395;48.132;11.608;2023-02-22T06:45:54;8.40;1.00
827;DHT22;395;48.132;11.608;2023-02-22T06:48:20;8.40;1.00
827;DHT22;395;48.132;11.608;2023-02-22T06:50:45;8.40;1.00
827;DHT22;395;48.132;11.608;2023-02-22T06:53:11;8.50;1.00
827;DHT22;395;48.132;11.608;2023-02-22T06:55:36;8.40;1.00
827;DHT22;395;48.132;11.608;2023-02-22T06:58:03;8.40;1.00
827;DHT22;395;48.132;11.608;2023-02-22T07:00:30;8.50;1.00
827;DHT22;395;48.132;11.608;2023-02-22T07:02:57;8.40;1.00
827;DHT22;395;48.132;11.608;2023-02-22T07:05:24;8.50;1.00
827;DHT22;395;48.132;11.608;2023-02-22T07:07:52;8.50;1.00
827;DHT22;395;48.132;11.608;2023-02-22T07:10:24;8.50;1.00
827;DHT22;395;48.132;11.608;2023-02-22T07:12:51;8.50;1.00
827;DHT22;395;48.132;11.608;2023-02-22T07:15:23;8.50;1.00
827;DHT22;395;48.132;11.608;2023-02-22T07:17:50;8.50;1.00
827;DHT22;395;48.132;11.608;2023-02-22T07:20:18;8.50;1.00
827;DHT22;395;48.132;11.608;2023-02-22T07:22:45;8.50;1.00
827;DHT22;395;48.132;11.608;2023-02-22T07:25:11;8.60;1.00
827;DHT22;395;48.132;11.608;2023-02-22T07:27:41;8.60;1.00
827;DHT22;395;48.132;11.608;2023-02-22T07:30:14;8.70;1.00
827;DHT22;395;48.132;11.608;2023-02-22T07:32:42;8.70;1.00
827;DHT22;395;48.132;11.608;2023-02-22T07:35:23;8.70;1.00
827;DHT22;395;48.132;11.608;2023-02-22T07:37:49;8.80;1.00
827;DHT22;395;48.132;11.608;2023-02-22T07:40:16;8.80;1.00
827;DHT22;395;48.132;11.608;2023-02-22T07:45:20;8.90;1.00
827;DHT22;395;48.132;11.608;2023-02-22T07:47:46;9.00;1.00
827;DHT22;395;48.132;11.608;2023-02-22T07:50:16;9.10;1.00
827;DHT22;395;48.132;11.608;2023-02-22T07:52:47;9.10;1.00
827;DHT22;395;48.132;11.608;2023-02-22T07:55:18;9.10;1.00
827;DHT22;395;48.132;11.608;2023-02-22T07:57:48;9.20;1.00
827;DHT22;395;48.132;11.608;2023-02-22T08:00:20;9.20;1.00
827;DHT22;395;48.132;11.608;2023-02-22T08:02:46;9.20;1.00
827;DHT22;395;48.132;11.608;2023-02-22T08:05:13;9.30;1.00
827;DHT22;395;48.132;11.608;2023-02-22T08:07:38;9.30;1.00
827;DHT22;395;48.132;11.608;2023-02-22T08:10:06;9.40;1.00
827;DHT22;395;48.132;11.608;2023-02-22T08:12:33;9.50;1.00
827;DHT22;395;48.132;11.608;2023-02-22T08:15:01;9.50;1.00
827;DHT22;395;48.132;11.608;2023-02-22T08:17:27;9.60;1.00
827;DHT22;395;48.132;11.608;2023-02-22T08:19:53;9.60;1.00
827;DHT22;395;48.132;11.608;2023-02-22T08:22:18;9.70;1.00
827;DHT22;395;48.132;11.608;2023-02-22T08:24:44;9.70;1.00
827;DHT22;395;48.132;11.608;2023-02-22T08:27:10;9.80;1.00
827;DHT22;395;48.132;11.608;2023-02-22T08:29:36;9.90;1.00
827;DHT22;395;48.132;11.608;2023-02-22T08:32:01;9.90;1.00
827;DHT22;395;48.132;11.608;2023-02-22T08:34:27;10.00;1.00
827;DHT22;395;48.132;11.608;2023-02-22T08:36:54;10.10;1.00
827;DHT22;395;48.132;11.608;2023-02-22T08:39:20;10.10;1.00
827;DHT22;395;48.132;11.608;2023-02-22T08:41:46;10.20;1.00
827;DHT22;395;48.132;11.608;2023-02-22T08:44:11;10.20;1.00
827;DHT22;395;48.132;11.608;2023-02-22T08:46:37;10.30;1.00
827;DHT22;395;48.132;11.608;2023-02-22T08:49:04;10.40;1.00
827;DHT22;395;48.132;11.608;2023-02-22T08:51:34;10.40;1.00
827;DHT22;395;48.132;11.608;2023-02-22T08:54:01;10.50;1.00
827;DHT22;395;48.132;11.608;2023-02-22T08:56:28;10.50;1.00
827;DHT22;395;48.132;11.608;2023-02-22T08:58:55;10.60;1.00
827;DHT22;395;48.132;11.608;2023-02-22T09:01:22;10.60;1.00
827;DHT22;395;48.132;11.608;2023-02-22T09:03:49;10.70;1.00
827;DHT22;395;48.132;11.608;2023-02-22T09:06:16;10.80;1.00
827;DHT22;395;48.132;11.608;2023-02-22T09:08:42;10.80;1.00
827;DHT22;395;48.132;11.608;2023-02-22T09:11:07;10.90;1.00
827;DHT22;395;48.132;11.608;2023-02-22T09:13:33;10.90;1.00
827;DHT22;395;48.132;11.608;2023-02-22T09:15:58;11.00;1.00
827;DHT22;395;48.132;11.608;2023-02-22T09:18:26;11.00;1.00
827;DHT22;395;48.132;11.608;2023-02-22T09:20:52;11.10;1.00
827;DHT22;395;48.132;11.608;2023-02-22T09:23:17;11.10;1.00
827;DHT22;395;48.132;11.608;2023-02-22T09:25:46;11.20;1.00
827;DHT22;395;48.132;11.608;2023-02-22T09:28:12;11.30;1.00
827;DHT22;395;48.132;11.608;2023-02-22T09:30:38;11.30;1.00
827;DHT22;395;48.132;11.608;2023-02-22T09:33:10;11.50;1.00
827;DHT22;395;48.132;11.608;2023-02-22T09:35:38;11.40;1.00
827;DHT22;395;48.132;11.608;2023-02-22T09:38:07;11.50;1.00
827;DHT22;395;48.132;11.608;2023-02-22T09:40:36;11.50;1.00
827;DHT22;395;48.132;11.608;2023-02-22T09:43:26;11.50;1.00
827;DHT22;395;48.132;11.608;2023-02-22T09:48:44;11.60;1.00
827;DHT22;395;48.132;11.608;2023-02-22T09:51:16;11.70;1.00
827;DHT22;395;48.132;11.608;2023-02-22T09:53:45;11.70;1.00
827;DHT22;395;48.132;11.608;2023-02-22T09:56:16;11.70;1.00
827;DHT22;395;48.132;11.608;2023-02-22T09:58:47;11.70;1.00
827;DHT22;395;48.132;11.608;2023-02-22T10:01:27;11.70;1.00
827;DHT22;395;48.132;11.608;2023-02-22T10:04:18;11.80;1.00
827;DHT22;395;48.132;11.608;2023-02-22T10:07:02;11.80;1.00
827;DHT22;395;48.132;11.608;2023-02-22T10:09:32;11.80;1.00
827;DHT22;395;48.132;11.608;2023-02-22T10:12:06;11.80;1.00
827;DHT22;395;48.132;11.608;2023-02-22T10:20:56;12.00;1.00
827;DHT22;395;48.132;11.608;2023-02-22T10:23:33;11.90;1.00
827;DHT22;395;48.132;11.608;2023-02-22T10:28:53;12.00;1.00
827;DHT22;395;48.132;11.608;2023-02-22T10:31:33;12.10;1.00
827;DHT22;395;48.132;11.608;2023-02-22T10:34:10;12.10;1.00
827;DHT22;395;48.132;11.608;2023-02-22T10:36:37;12.10;1.00
827;DHT22;395;48.132;11.608;2023-02-22T10:39:24;12.10;1.00
827;DHT22;395;48.132;11.608;2023-02-22T10:41:58;12.20;1.00
827;DHT22;395;48.132;11.608;2023-02-22T10:44:32;12.20;1.00
827;DHT22;395;48.132;11.608;2023-02-22T10:46:59;12.20;1.00
827;DHT22;395;48.132;11.608;2023-02-22T10:49:35;12.30;1.00
827;DHT22;395;48.132;11.608;2023-02-22T10:52:05;12.30;1.00
827;DHT22;395;48.132;11.608;2023-02-22T10:54:41;12.40;1.00
827;DHT22;395;48.132;11.608;2023-02-22T10:57:10;12.40;1.00
827;DHT22;395;48.132;11.608;2023-02-22T10:59:40;12.40;1.00
827;DHT22;395;48.132;11.608;2023-02-22T11:02:28;12.50;1.00
827;DHT22;395;48.132;11.608;2023-02-22T11:04:57;12.50;1.00
827;DHT22;395;48.132;11.608;2023-02-22T11:07:29;12.50;1.00
827;DHT22;395;48.132;11.608;2023-02-22T11:09:57;12.60;1.00
827;DHT22;395;48.132;11.608;2023-02-22T11:12:38;12.70;1.00
827;DHT22;395;48.132;11.608;2023-02-22T11:17:43;12.70;1.00
827;DHT22;395;48.132;11.608;2023-02-22T11:20:30;12.80;1.00
827;DHT22;395;48.132;11.608;2023-02-22T11:23:01;12.80;1.00
827;DHT22;395;48.132;11.608;2023-02-22T11:25:36;12.80;1.00
827;DHT22;395;48.132;11.608;2023-02-22T11:28:31;12.90;1.00
827;DHT22;395;48.132;11.608;2023-02-22T11:31:26;12.90;1.00
827;DHT22;395;48.132;11.608;2023-02-22T11:36:39;13.10;1.00
827;DHT22;395;48.132;11.608;2023-02-22T11:41:45;13.20;1.00
827;DHT22;395;48.132;11.608;2023-02-22T11:44:25;13.20;1.00
827;DHT22;395;48.132;11.608;2023-02-22T11:46:53;13.30;1.00
827;DHT22;395;48.132;11.608;2023-02-22T11:49:22;13.30;1.00
827;DHT22;395;48.132;11.608;2023-02-22T12:03:11;13.50;1.00
827;DHT22;395;48.132;11.608;2023-02-22T12:19:41;13.80;1.00
827;DHT22;395;48.132;11.608;2023-02-22T12:22:18;13.70;1.00
827;DHT22;395;48.132;11.608;2023-02-22T12:24:52;13.80;1.00
827;DHT22;395;48.132;11.608;2023-02-22T12:27:46;13.90;1.00
827;DHT22;395;48.132;11.608;2023-02-22T12:30:18;13.90;1.00
827;DHT22;395;48.132;11.608;2023-02-22T12:32:50;14.00;1.00
827;DHT22;395;48.132;11.608;2023-02-22T12:35:38;14.10;1.00
827;DHT22;395;48.132;11.608;2023-02-22T12:38:21;14.10;1.00
827;DHT22;395;48.132;11.608;2023-02-22T12:43:44;14.10;1.00
827;DHT22;395;48.132;11.608;2023-02-22T12:51:28;14.20;1.00
827;DHT22;395;48.132;11.608;2023-02-22T12:56:59;14.20;1.00
827;DHT22;395;48.132;11.608;2023-02-22T12:59:36;14.30;1.00
827;DHT22;395;48.132;11.608;2023-02-22T13:02:26;14.30;1.00
827;DHT22;395;48.132;11.608;2023-02-22T13:04:53;14.20;1.00
827;DHT22;395;48.132;11.608;2023-02-22T13:07:24;14.20;1.00
827;DHT22;395;48.132;11.608;2023-02-22T13:10:32;14.20;1.00
827;DHT22;395;48.132;11.608;2023-02-22T13:15:54;14.20;1.00
827;DHT22;395;48.132;11.608;2023-02-22T13:19:06;14.30;1.00
827;DHT22;395;48.132;11.608;2023-02-22T13:21:20;14.30;1.00
827;DHT22;395;48.132;11.608;2023-02-22T13:24:03;14.40;1.00
827;DHT22;395;48.132;11.608;2023-02-22T13:26:38;14.40;1.00
827;DHT22;395;48.132;11.608;2023-02-22T13:29:15;14.50;1.00
827;DHT22;395;48.132;11.608;2023-02-22T13:31:49;14.50;1.00
827;DHT22;395;48.132;11.608;2023-02-22T13:39:43;14.70;1.00
827;DHT22;395;48.132;11.608;2023-02-22T13:50:51;14.90;1.00
827;DHT22;395;48.132;11.608;2023-02-22T13:53:28;14.90;1.00
827;DHT22;395;48.132;11.608;2023-02-22T13:55:59;15.00;1.00
827;DHT22;395;48.132;11.608;2023-02-22T13:58:25;15.10;1.00
827;DHT22;395;48.132;11.608;2023-02-22T14:03:38;15.20;1.00
827;DHT22;395;48.132;11.608;2023-02-22T14:06:09;15.30;1.00
827;DHT22;395;48.132;11.608;2023-02-22T14:11:03;15.30;1.00
827;DHT22;395;48.132;11.608;2023-02-22T14:16:29;15.40;1.00
827;DHT22;395;48.132;11.608;2023-02-22T14:21:34;15.40;1.00
827;DHT22;395;48.132;11.608;2023-02-22T14:24:10;15.50;1.00
827;DHT22;395;48.132;11.608;2023-02-22T14:26:37;15.60;1.00
827;DHT22;395;48.132;11.608;2023-02-22T14:34:21;15.70;1.00
827;DHT22;395;48.132;11.608;2023-02-22T14:37:25;15.80;1.00
827;DHT22;395;48.132;11.608;2023-02-22T14:40:20;15.70;1.00
827;DHT22;395;48.132;11.608;2023-02-22T14:43:18;15.70;1.00
827;DHT22;395;48.132;11.608;2023-02-22T14:45:51;15.70;1.00
827;DHT22;395;48.132;11.608;2023-02-22T14:50:59;15.60;1.00
827;DHT22;395;48.132;11.608;2023-02-22T14:53:49;15.70;1.00
827;DHT22;395;48.132;11.608;2023-02-22T14:56:38;15.70;1.00
827;DHT22;395;48.132;11.608;2023-02-22T14:59:24;15.70;1.00
827;DHT22;395;48.132;11.608;2023-02-22T15:02:04;15.70;1.00
827;DHT22;395;48.132;11.608;2023-02-22T15:04:30;15.60;1.00
827;DHT22;395;48.132;11.608;2023-02-22T15:06:58;15.60;1.00
827;DHT22;395;48.132;11.608;2023-02-22T15:09:28;15.60;1.00
827;DHT22;395;48.132;11.608;2023-02-22T15:14:34;15.50;1.00
827;DHT22;395;48.132;11.608;2023-02-22T15:17:07;15.50;1.00
827;DHT22;395;48.132;11.608;2023-02-22T15:19:36;15.40;1.00
827;DHT22;395;48.132;11.608;2023-02-22T15:22:03;15.40;1.00
827;DHT22;395;48.132;11.608;2023-02-22T15:24:34;15.40;1.00
827;DHT22;395;48.132;11.608;2023-02-22T15:27:06;15.30;1.00
827;DHT22;395;48.132;11.608;2023-02-22T15:29:35;15.30;1.00
827;DHT22;395;48.132;11.608;2023-02-22T15:32:38;15.30;1.00
827;DHT22;395;48.132;11.608;2023-02-22T15:35:17;15.30;1.00
827;DHT22;395;48.132;11.608;2023-02-22T15:37:45;15.20;1.00
827;DHT22;395;48.132;11.608;2023-02-22T15:40:18;15.20;1.00
827;DHT22;395;48.132;11.608;2023-02-22T15:42:50;15.20;1.00
827;DHT22;395;48.132;11.608;2023-02-22T15:45:22;15.20;1.00
827;DHT22;395;48.132;11.608;2023-02-22T15:47:53;15.10;1.00
827;DHT22;395;48.132;11.608;2023-02-22T15:50:27;15.10;1.00
827;DHT22;395;48.132;11.608;2023-02-22T15:53:03;15.00;1.00
827;DHT22;395;48.132;11.608;2023-02-22T16:00:42;15.00;1.00
827;DHT22;395;48.132;11.608;2023-02-22T16:03:10;15.00;1.00
827;DHT22;395;48.132;11.608;2023-02-22T16:05:41;15.00;1.00
827;DHT22;395;48.132;11.608;2023-02-22T16:08:20;15.00;1.00
827;DHT22;395;48.132;11.608;2023-02-22T16:11:10;15.00;1.00
827;DHT22;395;48.132;11.608;2023-02-22T16:13:40;14.90;1.00
827;DHT22;395;48.132;11.608;2023-02-22T16:16:21;14.90;1.00
827;DHT22;395;48.132;11.608;2023-02-22T16:18:50;14.80;1.00
827;DHT22;395;48.132;11.608;2023-02-22T16:21:20;14.80;1.00
827;DHT22;395;48.132;11.608;2023-02-22T16:23:49;14.80;1.00
827;DHT22;395;48.132;11.608;2023-02-22T16:26:29;14.80;1.00
827;DHT22;395;48.132;11.608;2023-02-22T16:29:07;14.80;1.00
827;DHT22;395;48.132;11.608;2023-02-22T16:31:37;14.70;1.00
827;DHT22;395;48.132;11.608;2023-02-22T16:34:05;14.60;1.00
827;DHT22;395;48.132;11.608;2023-02-22T16:36:41;14.50;1.00
827;DHT22;395;48.132;11.608;2023-02-22T16:39:19;14.60;1.00
827;DHT22;395;48.132;11.608;2023-02-22T16:41:46;14.60;1.00
827;DHT22;395;48.132;11.608;2023-02-22T16:44:12;14.50;1.00
827;DHT22;395;48.132;11.608;2023-02-22T16:46:38;14.50;1.00
827;DHT22;395;48.132;11.608;2023-02-22T16:49:07;14.50;1.00
827;DHT22;395;48.132;11.608;2023-02-22T16:54:20;14.40;1.00
827;DHT22;395;48.132;11.608;2023-02-22T16:56:47;14.50;1.00
827;DHT22;395;48.132;11.608;2023-02-22T16:59:14;14.50;1.00
827;DHT22;395;48.132;11.608;2023-02-22T17:01:41;14.40;1.00
827;DHT22;395;48.132;11.608;2023-02-22T17:04:15;14.40;1.00
827;DHT22;395;48.132;11.608;2023-02-22T17:06:42;14.40;1.00
827;DHT22;395;48.132;11.608;2023-02-22T17:09:08;14.40;1.00
827;DHT22;395;48.132;11.608;2023-02-22T17:11:34;14.30;1.00
827;DHT22;395;48.132;11.608;2023-02-22T17:14:00;14.30;1.00
827;DHT22;395;48.132;11.608;2023-02-22T17:16:26;14.30;1.00
827;DHT22;395;48.132;11.608;2023-02-22T17:18:52;14.30;1.00
827;DHT22;395;48.132;11.608;2023-02-22T17:21:17;14.30;1.00
827;DHT22;395;48.132;11.608;2023-02-22T17:23:43;14.30;1.00
827;DHT22;395;48.132;11.608;2023-02-22T17:26:12;14.20;1.00
827;DHT22;395;48.132;11.608;2023-02-22T17:28:39;14.30;1.00
827;DHT22;395;48.132;11.608;2023-02-22T17:31:05;14.30;1.00
827;DHT22;395;48.132;11.608;2023-02-22T17:33:33;14.20;1.00
827;DHT22;395;48.132;11.608;2023-02-22T17:36:00;14.20;1.00
827;DHT22;395;48.132;11.608;2023-02-22T17:38:26;14.20;1.00
827;DHT22;395;48.132;11.608;2023-02-22T17:40:55;14.10;1.00
827;DHT22;395;48.132;11.608;2023-02-22T17:43:22;14.10;1.00
827;DHT22;395;48.132;11.608;2023-02-22T17:45:48;14.00;1.00
827;DHT22;395;48.132;11.608;2023-02-22T17:48:15;13.90;1.00
827;DHT22;395;48.132;11.608;2023-02-22T17:50:42;13.80;1.00
827;DHT22;395;48.132;11.608;2023-02-22T17:53:08;13.90;1.00
827;DHT22;395;48.132;11.608;2023-02-22T17:55:41;14.00;1.00
827;DHT22;395;48.132;11.608;2023-02-22T17:58:08;14.00;1.00
827;DHT22;395;48.132;11.608;2023-02-22T18:00:41;14.00;1.00
827;DHT22;395;48.132;11.608;2023-02-22T18:03:13;14.00;1.00
827;DHT22;395;48.132;11.608;2023-02-22T18:05:45;14.00;1.00
827;DHT22;395;48.132;11.608;2023-02-22T18:08:12;14.00;1.00
827;DHT22;395;48.132;11.608;2023-02-22T18:10:39;14.00;1.00
827;DHT22;395;48.132;11.608;2023-02-22T18:13:07;14.00;1.00
827;DHT22;395;48.132;11.608;2023-02-22T18:15:33;14.00;1.00
827;DHT22;395;48.132;11.608;2023-02-22T18:18:00;14.00;1.00
827;DHT22;395;48.132;11.608;2023-02-22T18:20:26;14.00;1.00
827;DHT22;395;48.132;11.608;2023-02-22T18:23:05;14.00;1.00
827;DHT22;395;48.132;11.608;2023-02-22T18:25:33;14.00;1.00
827;DHT22;395;48.132;11.608;2023-02-22T18:28:01;14.00;1.00
827;DHT22;395;48.132;11.608;2023-02-22T18:30:27;14.00;1.00
827;DHT22;395;48.132;11.608;2023-02-22T18:32:53;14.00;1.00
827;DHT22;395;48.132;11.608;2023-02-22T18:35:19;14.00;1.00
827;DHT22;395;48.132;11.608;2023-02-22T18:37:45;13.90;1.00
827;DHT22;395;48.132;11.608;2023-02-22T18:40:11;13.90;1.00
827;DHT22;395;48.132;11.608;2023-02-22T18:42:38;13.90;1.00
827;DHT22;395;48.132;11.608;2023-02-22T18:45:05;13.90;1.00
827;DHT22;395;48.132;11.608;2023-02-22T18:47:37;13.80;1.00
827;DHT22;395;48.132;11.608;2023-02-22T18:50:04;13.80;1.00
827;DHT22;395;48.132;11.608;2023-02-22T18:52:30;13.80;1.00
827;DHT22;395;48.132;11.608;2023-02-22T18:54:55;13.80;1.00
827;DHT22;395;48.132;11.608;2023-02-22T18:57:21;13.70;1.00
827;DHT22;395;48.132;11.608;2023-02-22T18:59:47;13.70;1.00
827;DHT22;395;48.132;11.608;2023-02-22T19:02:15;13.70;1.00
827;DHT22;395;48.132;11.608;2023-02-22T19:04:41;13.60;1.00
827;DHT22;395;48.132;11.608;2023-02-22T19:07:10;13.60;1.00
827;DHT22;395;48.132;11.608;2023-02-22T19:09:43;13.60;1.00
827;DHT22;395;48.132;11.608;2023-02-22T19:12:08;13.50;1.00
827;DHT22;395;48.132;11.608;2023-02-22T19:14:34;13.50;1.00